Terminal Aerodrome Forecast
Issued by NWS

Home | Current Version | Previous Version | Text Only | Print | Product List | Glossary On
Versions: 1 2 3 4 5 6 7 8 9 10 11 12 13 14 15 16 17 18 19 20 21 22
000
FTUS42 KTBW 312019 AAA
TAFPIE
TAF AMD
KPIE 312019Z 3120/0118 18009KT 6SM RA VCTS SCT010CB BKN035 OVC080
      TEMPO 3120/3124 VRB15G25KT 2SM TSRA BR BKN003CB
     FM010000 16007KT 6SM -RA SCT008 OVC025
     FM010600 14010KT 6SM -RA SCT008 BKN030 OVC090
     FM011300 17015G23KT 6SM -RA FEW010 BKN025 OVC080=

USA.gov is the U.S. government's official web portal to all federal, state and local government web resources and services.